Time;durP1;ratioP1;P1;durP2;ratioP2;P2;SDS_P1;SDS_P2;PMS_P1;PMS_P2;Temp;Humidity;BMP_temperature;BMP_pressure;BME280_temperature;BME280_humidity;BME280_pressure;Samples;Min_cycle;Max_cycle;Signal;HPM_P1;HPM_P2
2024/01/28 00:02:09;;;;;;;;;;;3.50;99.90;;;;;;5021520;28;20284;-79
2024/01/28 00:04:55;;;;;;;;;;;3.50;99.90;;;;;;5017027;28;20358;-76
2024/01/28 00:07:41;;;;;;;;;;;3.40;99.90;;;;;;5016438;28;19920;-76
2024/01/28 00:10:27;;;;;;;;;;;3.40;99.90;;;;;;5018388;28;19917;-78
2024/01/28 00:13:13;;;;;;;;;;;3.40;99.90;;;;;;5017513;28;19979;-75
2024/01/28 00:16:12;;;;;;;;;;;3.40;99.90;;;;;;5015657;28;19921;-76
2024/01/28 00:18:58;;;;;;;;;;;3.40;99.90;;;;;;5013333;28;19955;-76
2024/01/28 00:21:44;;;;;;;;;;;3.40;99.90;;;;;;5028773;28;19963;-76
2024/01/28 00:24:30;;;;;;;;;;;3.40;99.90;;;;;;5002033;28;19988;-76
2024/01/28 00:27:17;;;;;;;;;;;3.40;99.90;;;;;;5014374;28;20342;-76
2024/01/28 00:30:04;;;;;;;;;;;3.40;99.90;;;;;;5033908;28;20354;-76
2024/01/28 00:32:52;;;;;;;;;;;3.30;99.90;;;;;;5015941;28;20429;-76
2024/01/28 00:35:38;;;;;;;;;;;3.30;99.90;;;;;;5014128;28;19963;-76
2024/01/28 00:38:24;;;;;;;;;;;3.30;99.90;;;;;;5006292;28;20318;-74
2024/01/28 00:41:20;;;;;;;;;;;3.20;99.90;;;;;;5021704;28;20275;-76
2024/01/28 00:44:06;;;;;;;;;;;3.20;99.90;;;;;;5017109;28;19928;-76
2024/01/28 00:46:54;;;;;;;;;;;3.20;99.90;;;;;;5010387;28;19921;-76
2024/01/28 00:49:39;;;;;;;;;;;3.20;99.90;;;;;;5013872;28;19924;-76
2024/01/28 00:52:25;;;;;;;;;;;3.20;99.90;;;;;;5026199;28;19917;-76
2024/01/28 00:55:11;;;;;;;;;;;3.20;99.90;;;;;;5026702;28;19924;-76
2024/01/28 00:57:58;;;;;;;;;;;3.10;99.90;;;;;;5018405;28;20419;-74
2024/01/28 01:00:44;;;;;;;;;;;3.10;99.90;;;;;;5008564;28;19917;-76
2024/01/28 01:03:30;;;;;;;;;;;3.10;99.90;;;;;;5012246;28;19921;-76
2024/01/28 01:06:16;;;;;;;;;;;3.10;99.90;;;;;;5011162;28;19998;-76
2024/01/28 01:09:01;;;;;;;;;;;3.10;99.90;;;;;;5012557;28;19913;-76
2024/01/28 01:11:49;;;;;;;;;;;3.00;99.90;;;;;;5030372;28;19916;-76
2024/01/28 01:14:37;;;;;;;;;;;2.90;99.90;;;;;;5026328;28;20075;-76
2024/01/28 01:17:23;;;;;;;;;;;2.90;99.90;;;;;;5017117;28;20226;-76
2024/01/28 01:20:09;;;;;;;;;;;2.90;99.90;;;;;;5027411;28;20352;-76
2024/01/28 01:22:55;;;;;;;;;;;2.90;99.90;;;;;;5033596;28;19960;-76
2024/01/28 01:25:41;;;;;;;;;;;2.90;99.90;;;;;;5010630;28;19994;-76
2024/01/28 01:28:31;;;;;;;;;;;2.80;99.90;;;;;;5028453;28;19928;-76
2024/01/28 01:31:17;;;;;;;;;;;2.70;99.90;;;;;;5021681;28;19931;-76
2024/01/28 01:34:03;;;;;;;;;;;2.60;99.90;;;;;;5032413;28;20322;-76
2024/01/28 01:36:50;;;;;;;;;;;2.60;99.90;;;;;;5035289;28;19916;-76
2024/01/28 01:39:36;;;;;;;;;;;2.60;99.90;;;;;;5047314;28;19925;-76
2024/01/28 01:42:21;;;;;;;;;;;2.50;99.90;;;;;;5023377;28;19945;-76
2024/01/28 01:45:08;;;;;;;;;;;2.50;99.90;;;;;;5021057;28;19936;-76
2024/01/28 01:47:53;;;;;;;;;;;2.40;99.90;;;;;;5032567;28;20333;-76
2024/01/28 01:50:39;;;;;;;;;;;2.40;99.90;;;;;;5008468;28;20028;-76
2024/01/28 01:53:25;;;;;;;;;;;2.30;99.90;;;;;;5040322;28;19913;-76
2024/01/28 01:56:11;;;;;;;;;;;2.30;99.90;;;;;;5037516;28;19917;-76
2024/01/28 01:58:57;;;;;;;;;;;2.30;99.90;;;;;;5021550;28;19933;-76
2024/01/28 02:01:43;;;;;;;;;;;2.20;99.90;;;;;;5008047;28;20325;-76
2024/01/28 02:04:29;;;;;;;;;;;2.20;99.90;;;;;;5052658;28;19920;-76
2024/01/28 02:07:15;;;;;;;;;;;2.20;99.90;;;;;;5041873;28;20296;-76
2024/01/28 02:10:03;;;;;;;;;;;2.20;99.90;;;;;;5042089;28;19913;-76
2024/01/28 02:12:52;;;;;;;;;;;2.10;99.90;;;;;;5009321;28;20250;-76
2024/01/28 02:15:38;;;;;;;;;;;2.10;99.90;;;;;;5027912;28;19925;-76
2024/01/28 02:18:24;;;;;;;;;;;2.10;99.90;;;;;;5007910;28;19928;-76
2024/01/28 02:21:09;;;;;;;;;;;2.10;99.90;;;;;;5021627;28;19917;-77
2024/01/28 02:23:55;;;;;;;;;;;2.10;99.90;;;;;;5007798;28;19921;-74
2024/01/28 02:26:41;;;;;;;;;;;2.10;99.90;;;;;;5022149;28;20310;-74
2024/01/28 02:29:27;;;;;;;;;;;2.10;99.90;;;;;;5035468;28;19917;-74
2024/01/28 02:32:14;;;;;;;;;;;2.10;99.90;;;;;;5048818;28;20527;-74
2024/01/28 02:35:00;;;;;;;;;;;2.10;99.90;;;;;;5027784;28;19932;-74
2024/01/28 02:37:47;;;;;;;;;;;2.10;99.90;;;;;;5023866;28;19913;-74
2024/01/28 02:40:33;;;;;;;;;;;2.20;99.90;;;;;;5021948;28;19924;-74
2024/01/28 02:43:19;;;;;;;;;;;2.20;99.90;;;;;;5020079;28;19960;-74
2024/01/28 02:46:05;;;;;;;;;;;2.20;99.90;;;;;;5020777;28;19928;-74
2024/01/28 02:48:51;;;;;;;;;;;2.20;99.90;;;;;;5028735;28;20062;-74
2024/01/28 02:51:37;;;;;;;;;;;2.20;99.90;;;;;;5019869;28;19975;-74
2024/01/28 02:54:23;;;;;;;;;;;2.10;99.90;;;;;;5025724;28;20008;-74
2024/01/28 02:57:09;;;;;;;;;;;2.10;99.90;;;;;;5027091;28;19913;-74
2024/01/28 02:59:55;;;;;;;;;;;2.00;99.90;;;;;;5026199;28;20293;-74
2024/01/28 03:02:41;;;;;;;;;;;2.00;99.90;;;;;;5038912;28;20394;-74
2024/01/28 03:05:27;;;;;;;;;;;2.00;99.90;;;;;;5037529;28;19921;-74
2024/01/28 03:08:13;;;;;;;;;;;1.90;99.90;;;;;;5026017;28;20257;-75
2024/01/28 03:10:59;;;;;;;;;;;1.90;99.90;;;;;;5025504;28;20359;-75
2024/01/28 03:13:45;;;;;;;;;;;1.90;99.90;;;;;;5029591;28;19964;-75
2024/01/28 03:16:31;;;;;;;;;;;1.90;99.90;;;;;;5025052;28;19917;-75
2024/01/28 03:19:17;;;;;;;;;;;1.90;99.90;;;;;;5029050;28;19948;-79
2024/01/28 03:22:03;;;;;;;;;;;1.80;99.90;;;;;;5021675;28;19917;-75
2024/01/28 03:24:49;;;;;;;;;;;1.80;99.90;;;;;;5044292;28;20260;-76
2024/01/28 03:27:35;;;;;;;;;;;1.80;99.90;;;;;;5022922;28;19921;-75
2024/01/28 03:30:22;;;;;;;;;;;1.90;99.90;;;;;;5018686;28;19917;-75
2024/01/28 03:33:07;;;;;;;;;;;1.90;99.90;;;;;;5037492;28;19921;-75
2024/01/28 03:35:53;;;;;;;;;;;1.90;99.90;;;;;;5019641;28;19917;-78
2024/01/28 03:38:39;;;;;;;;;;;1.90;99.90;;;;;;5020839;28;20235;-76
2024/01/28 03:41:25;;;;;;;;;;;1.90;99.90;;;;;;5040043;28;19992;-74
2024/01/28 03:44:12;;;;;;;;;;;1.90;99.90;;;;;;5026703;28;20368;-74
2024/01/28 03:46:58;;;;;;;;;;;1.90;99.90;;;;;;5039714;28;19921;-76
2024/01/28 03:49:43;;;;;;;;;;;1.90;99.90;;;;;;5031969;28;19968;-75
2024/01/28 03:52:29;;;;;;;;;;;1.90;99.90;;;;;;5021616;28;19913;-77
2024/01/28 03:55:15;;;;;;;;;;;1.90;99.90;;;;;;5006227;28;19927;-76
2024/01/28 03:58:01;;;;;;;;;;;1.80;99.90;;;;;;5019927;28;19913;-76
2024/01/28 04:00:47;;;;;;;;;;;1.80;99.90;;;;;;5037527;28;19947;-77
2024/01/28 04:03:33;;;;;;;;;;;1.70;99.90;;;;;;5026023;28;19953;-77
2024/01/28 04:06:19;;;;;;;;;;;1.70;99.90;;;;;;5018624;28;19921;-77
2024/01/28 04:09:05;;;;;;;;;;;1.70;99.90;;;;;;5025223;28;20344;-77
2024/01/28 04:11:51;;;;;;;;;;;1.70;99.90;;;;;;5055414;28;19917;-77
2024/01/28 04:14:37;;;;;;;;;;;1.70;99.90;;;;;;5030804;28;19975;-77
2024/01/28 04:17:23;;;;;;;;;;;1.70;99.90;;;;;;5027798;28;19928;-77
2024/01/28 04:20:09;;;;;;;;;;;1.70;99.90;;;;;;5020624;28;20011;-77
2024/01/28 04:22:55;;;;;;;;;;;1.70;99.90;;;;;;5020655;28;20253;-77
2024/01/28 04:25:41;;;;;;;;;;;1.80;99.90;;;;;;5020039;28;19977;-77
2024/01/28 04:28:27;;;;;;;;;;;1.80;99.90;;;;;;5019817;28;20391;-76
2024/01/28 04:31:13;;;;;;;;;;;1.80;99.90;;;;;;5019439;28;20008;-77
2024/01/28 04:33:59;;;;;;;;;;;1.70;99.90;;;;;;5004909;28;20570;-76
2024/01/28 04:36:45;;;;;;;;;;;1.70;99.90;;;;;;5031150;28;19998;-77
2024/01/28 04:39:32;;;;;;;;;;;1.60;99.90;;;;;;5040768;28;19959;-77
2024/01/28 04:42:24;;;;;;;;;;;1.60;99.90;;;;;;5006522;28;19913;-77
2024/01/28 04:45:11;;;;;;;;;;;1.50;99.90;;;;;;5040028;28;19921;-77
2024/01/28 04:47:57;;;;;;;;;;;1.50;99.90;;;;;;5009494;28;19925;-77
2024/01/28 04:50:43;;;;;;;;;;;1.50;99.90;;;;;;5029080;28;20004;-76
2024/01/28 04:53:29;;;;;;;;;;;1.50;99.90;;;;;;5034294;28;19917;-76
2024/01/28 04:56:15;;;;;;;;;;;1.50;99.90;;;;;;5038107;28;19991;-76
2024/01/28 04:59:03;;;;;;;;;;;1.60;99.90;;;;;;5025523;28;20589;-76
2024/01/28 05:01:49;;;;;;;;;;;1.50;99.90;;;;;;5020660;28;20003;-76
2024/01/28 05:04:35;;;;;;;;;;;1.50;99.90;;;;;;5021688;28;19967;-77
2024/01/28 05:07:21;;;;;;;;;;;1.50;99.90;;;;;;5027984;28;19921;-77
2024/01/28 05:10:08;;;;;;;;;;;1.50;99.90;;;;;;5009833;28;19917;-76
2024/01/28 05:12:54;;;;;;;;;;;1.50;99.90;;;;;;5011280;28;19917;-77
2024/01/28 05:15:41;;;;;;;;;;;1.50;99.90;;;;;;5031793;28;20234;-77
2024/01/28 05:18:27;;;;;;;;;;;1.50;99.90;;;;;;5043581;28;19917;-76
2024/01/28 05:21:13;;;;;;;;;;;1.50;99.90;;;;;;5058248;28;19927;-76
2024/01/28 05:24:00;;;;;;;;;;;1.50;99.90;;;;;;5023958;28;19913;-77
2024/01/28 05:26:46;;;;;;;;;;;1.40;99.90;;;;;;5022116;28;20012;-77
2024/01/28 05:29:32;;;;;;;;;;;1.50;99.90;;;;;;5040819;28;19931;-76
2024/01/28 05:32:18;;;;;;;;;;;1.50;99.90;;;;;;5057166;28;20594;-77
2024/01/28 05:35:04;;;;;;;;;;;1.40;99.90;;;;;;5043347;28;19917;-77
2024/01/28 05:37:50;;;;;;;;;;;1.40;99.90;;;;;;5028267;28;19924;-77
2024/01/28 05:40:36;;;;;;;;;;;1.40;99.90;;;;;;5028718;28;19917;-77
2024/01/28 05:43:22;;;;;;;;;;;1.40;99.90;;;;;;5022258;28;20242;-77
2024/01/28 05:46:08;;;;;;;;;;;1.40;99.90;;;;;;5050960;28;19917;-77
2024/01/28 05:48:54;;;;;;;;;;;1.40;99.90;;;;;;5028212;28;19912;-77
2024/01/28 05:51:40;;;;;;;;;;;1.40;99.90;;;;;;5030153;28;19952;-77
2024/01/28 05:54:26;;;;;;;;;;;1.40;99.90;;;;;;5009764;28;20377;-76
2024/01/28 05:57:12;;;;;;;;;;;1.40;99.90;;;;;;5007089;28;19917;-77
2024/01/28 05:59:58;;;;;;;;;;;1.50;99.90;;;;;;5027124;28;20655;-76
2024/01/28 06:02:44;;;;;;;;;;;1.40;99.90;;;;;;5022243;28;19924;-77
2024/01/28 06:05:30;;;;;;;;;;;1.40;99.90;;;;;;5048799;28;20353;-77
2024/01/28 06:08:18;;;;;;;;;;;1.50;99.90;;;;;;5040709;28;20333;-77
2024/01/28 06:11:04;;;;;;;;;;;1.40;99.90;;;;;;5021580;28;19917;-77
2024/01/28 06:13:49;;;;;;;;;;;1.40;99.90;;;;;;5051072;28;20560;-76
2024/01/28 06:16:35;;;;;;;;;;;1.40;99.90;;;;;;5040562;28;19912;-77
2024/01/28 06:19:21;;;;;;;;;;;1.40;99.90;;;;;;5040322;28;19921;-76
2024/01/28 06:22:07;;;;;;;;;;;1.40;99.90;;;;;;5024176;28;20567;-76
2024/01/28 06:24:53;;;;;;;;;;;1.40;99.90;;;;;;5035277;28;20562;-76
2024/01/28 06:27:39;;;;;;;;;;;1.40;99.90;;;;;;5035411;28;19944;-76
2024/01/28 06:30:27;;;;;;;;;;;1.40;99.90;;;;;;5037238;28;19928;-76
2024/01/28 06:33:13;;;;;;;;;;;1.40;99.90;;;;;;5035187;28;19999;-76
2024/01/28 06:36:00;;;;;;;;;;;1.40;99.90;;;;;;5021392;28;20024;-76
2024/01/28 06:38:46;;;;;;;;;;;1.40;99.90;;;;;;5022453;28;19952;-76
2024/01/28 06:41:31;;;;;;;;;;;1.40;99.90;;;;;;5041396;28;19916;-76
2024/01/28 06:44:17;;;;;;;;;;;1.30;99.90;;;;;;5021550;28;19913;-76
2024/01/28 06:47:04;;;;;;;;;;;1.30;99.90;;;;;;5006359;28;19921;-76
2024/01/28 06:49:50;;;;;;;;;;;1.30;99.90;;;;;;5016105;28;19921;-76
2024/01/28 06:52:36;;;;;;;;;;;1.30;99.90;;;;;;5021557;28;20016;-76
2024/01/28 06:55:22;;;;;;;;;;;1.20;99.90;;;;;;5048549;28;20249;-76
2024/01/28 06:58:08;;;;;;;;;;;1.20;99.90;;;;;;5035499;28;19928;-76
2024/01/28 07:00:53;;;;;;;;;;;1.20;99.90;;;;;;5005759;28;19913;-76
2024/01/28 07:03:40;;;;;;;;;;;1.20;99.90;;;;;;5027540;28;20429;-76
2024/01/28 07:06:26;;;;;;;;;;;1.20;99.90;;;;;;5040806;28;20016;-76
2024/01/28 07:09:12;;;;;;;;;;;1.20;99.90;;;;;;5055525;28;19916;-77
2024/01/28 07:11:58;;;;;;;;;;;1.20;99.90;;;;;;5049606;28;19924;-77
2024/01/28 07:14:44;;;;;;;;;;;1.30;99.90;;;;;;5040340;28;19912;-76
2024/01/28 07:17:30;;;;;;;;;;;1.30;99.90;;;;;;5028814;28;19917;-76
2024/01/28 07:20:16;;;;;;;;;;;1.40;99.90;;;;;;5016559;28;19926;-76
2024/01/28 07:23:04;;;;;;;;;;;1.40;99.90;;;;;;5019597;28;19917;-76
2024/01/28 07:25:50;;;;;;;;;;;1.40;99.90;;;;;;5006595;28;19952;-76
2024/01/28 07:28:36;;;;;;;;;;;1.40;99.90;;;;;;5019740;28;19928;-76
2024/01/28 07:31:22;;;;;;;;;;;1.40;99.90;;;;;;5019776;28;20015;-76
2024/01/28 07:34:08;;;;;;;;;;;1.30;99.90;;;;;;5017980;28;19931;-76
2024/01/28 07:36:56;;;;;;;;;;;1.30;99.90;;;;;;5024754;28;19923;-76
2024/01/28 07:39:42;;;;;;;;;;;1.30;99.90;;;;;;5028333;28;19927;-77
2024/01/28 07:42:28;;;;;;;;;;;1.30;99.90;;;;;;5024891;28;19916;-76
2024/01/28 07:45:13;;;;;;;;;;;1.30;99.90;;;;;;5032647;28;19983;-76
2024/01/28 07:47:59;;;;;;;;;;;1.30;99.90;;;;;;5020455;28;20008;-76
2024/01/28 07:50:45;;;;;;;;;;;1.20;99.90;;;;;;5031417;28;20310;-76
2024/01/28 07:53:31;;;;;;;;;;;1.30;99.90;;;;;;5032791;28;20223;-76
2024/01/28 07:56:17;;;;;;;;;;;1.30;99.90;;;;;;5052838;28;20004;-77
2024/01/28 07:59:03;;;;;;;;;;;1.30;99.90;;;;;;5021168;28;19951;-76
2024/01/28 08:01:49;;;;;;;;;;;1.30;99.90;;;;;;5020302;28;19917;-76
2024/01/28 08:04:35;;;;;;;;;;;1.30;99.90;;;;;;5031820;28;19927;-76
2024/01/28 08:07:20;;;;;;;;;;;1.40;99.90;;;;;;5039505;28;20306;-76
2024/01/28 08:10:07;;;;;;;;;;;1.40;99.90;;;;;;5038351;28;19913;-76
2024/01/28 08:12:53;;;;;;;;;;;1.50;99.90;;;;;;5020403;28;20175;-76
2024/01/28 08:15:40;;;;;;;;;;;1.50;99.90;;;;;;5019502;28;19920;-76
2024/01/28 08:18:26;;;;;;;;;;;1.50;99.90;;;;;;5020332;28;19929;-76
2024/01/28 08:21:12;;;;;;;;;;;1.60;99.90;;;;;;5021616;28;19923;-76
2024/01/28 08:23:58;;;;;;;;;;;1.60;99.90;;;;;;5019865;28;19983;-76
2024/01/28 08:26:44;;;;;;;;;;;1.70;99.90;;;;;;5026628;28;19941;-76
2024/01/28 08:29:29;;;;;;;;;;;1.70;99.90;;;;;;5024835;28;19921;-76
2024/01/28 08:32:15;;;;;;;;;;;1.70;99.90;;;;;;5038181;28;20341;-76
2024/01/28 08:35:03;;;;;;;;;;;1.70;99.90;;;;;;5018575;28;19924;-76
2024/01/28 08:37:48;;;;;;;;;;;1.70;99.90;;;;;;5034485;28;19916;-76
2024/01/28 08:40:34;;;;;;;;;;;1.80;99.90;;;;;;5018367;28;19921;-76
2024/01/28 08:43:21;;;;;;;;;;;1.80;99.90;;;;;;5011779;28;19920;-76
2024/01/28 08:46:07;;;;;;;;;;;1.90;99.90;;;;;;5029745;28;19921;-76
2024/01/28 08:48:53;;;;;;;;;;;1.90;99.90;;;;;;5024820;28;19924;-76
2024/01/28 08:51:39;;;;;;;;;;;2.00;99.90;;;;;;5024825;28;19948;-76
2024/01/28 08:54:25;;;;;;;;;;;2.00;99.90;;;;;;5038474;28;20284;-76
2024/01/28 08:57:11;;;;;;;;;;;2.10;99.90;;;;;;5024513;28;19913;-76
2024/01/28 08:59:57;;;;;;;;;;;2.10;99.90;;;;;;5005912;28;19913;-76
2024/01/28 09:02:43;;;;;;;;;;;2.20;99.90;;;;;;5005338;28;19991;-76
2024/01/28 09:05:29;;;;;;;;;;;2.30;99.90;;;;;;5036598;28;20333;-76
2024/01/28 09:08:15;;;;;;;;;;;2.30;99.90;;;;;;5004912;28;19918;-76
2024/01/28 09:11:01;;;;;;;;;;;2.40;99.90;;;;;;5018252;28;19921;-76
2024/01/28 09:13:47;;;;;;;;;;;2.50;99.90;;;;;;5024964;28;20241;-76
2024/01/28 09:16:34;;;;;;;;;;;2.60;99.90;;;;;;5018211;28;19941;-76
2024/01/28 09:19:20;;;;;;;;;;;2.60;99.90;;;;;;5016692;28;19913;-76
2024/01/28 09:22:06;;;;;;;;;;;2.70;99.90;;;;;;5047851;28;19923;-76
2024/01/28 09:24:52;;;;;;;;;;;2.80;99.90;;;;;;5023226;28;20344;-75
2024/01/28 09:27:38;;;;;;;;;;;2.80;99.90;;;;;;5027943;28;20011;-75
2024/01/28 09:30:24;;;;;;;;;;;3.00;99.90;;;;;;5031178;28;19917;-75
2024/01/28 09:33:14;;;;;;;;;;;3.00;99.90;;;;;;5025607;28;19940;-75
2024/01/28 09:36:00;;;;;;;;;;;3.10;99.90;;;;;;5038378;28;19912;-75
2024/01/28 09:38:47;;;;;;;;;;;3.30;99.90;;;;;;5015933;28;19925;-75
2024/01/28 09:41:42;;;;;;;;;;;3.40;99.90;;;;;;5008668;28;19931;-76
2024/01/28 09:44:27;;;;;;;;;;;3.50;99.90;;;;;;5018197;28;19960;-75
2024/01/28 09:47:13;;;;;;;;;;;3.60;99.90;;;;;;5028627;28;19928;-75
2024/01/28 09:50:00;;;;;;;;;;;3.70;99.90;;;;;;5039619;28;19930;-75
2024/01/28 09:52:46;;;;;;;;;;;3.90;99.90;;;;;;5027834;28;19986;-75
2024/01/28 09:55:33;;;;;;;;;;;4.00;99.90;;;;;;5029382;28;19917;-75
2024/01/28 09:58:19;;;;;;;;;;;4.10;99.90;;;;;;5007660;28;19913;-75
2024/01/28 10:01:05;;;;;;;;;;;4.20;99.90;;;;;;5055902;28;20012;-75
2024/01/28 10:03:51;;;;;;;;;;;4.40;99.90;;;;;;5022456;28;19913;-76
2024/01/28 10:06:37;;;;;;;;;;;4.60;99.90;;;;;;5021423;28;20024;-75
2024/01/28 10:09:26;;;;;;;;;;;4.70;99.90;;;;;;5039657;28;20249;-76
2024/01/28 10:12:12;;;;;;;;;;;4.80;99.90;;;;;;5009427;28;19925;-75
2024/01/28 10:14:58;;;;;;;;;;;5.10;99.90;;;;;;5006613;28;19917;-76
2024/01/28 10:17:48;;;;;;;;;;;5.40;99.90;;;;;;5013835;28;20382;-76
2024/01/28 10:20:33;;;;;;;;;;;5.50;99.90;;;;;;5014297;28;19984;-76
2024/01/28 10:23:19;;;;;;;;;;;5.70;99.90;;;;;;5038603;28;20281;-75
2024/01/28 10:26:05;;;;;;;;;;;6.00;99.90;;;;;;5024058;28;19931;-76
2024/01/28 10:28:51;;;;;;;;;;;6.20;99.90;;;;;;5007741;28;19914;-75
2024/01/28 10:31:37;;;;;;;;;;;6.40;99.90;;;;;;5010022;28;19952;-75
2024/01/28 10:34:23;;;;;;;;;;;6.70;99.90;;;;;;5027521;28;19936;-75
2024/01/28 10:37:10;;;;;;;;;;;7.00;99.90;;;;;;5028508;28;19913;-75
2024/01/28 10:40:00;;;;;;;;;;;7.20;99.90;;;;;;5011443;28;20294;-75
2024/01/28 10:42:47;;;;;;;;;;;7.50;99.90;;;;;;5031974;28;20298;-76
2024/01/28 10:45:34;;;;;;;;;;;7.80;99.90;;;;;;5020892;28;19925;-75
2024/01/28 10:48:20;;;;;;;;;;;8.10;99.90;;;;;;5036266;28;20003;-75
2024/01/28 10:51:06;;;;;;;;;;;8.50;99.90;;;;;;5040937;28;20010;-75
2024/01/28 10:53:52;;;;;;;;;;;8.80;99.90;;;;;;5040425;28;19913;-76
2024/01/28 10:56:38;;;;;;;;;;;9.10;99.90;;;;;;5024775;28;20476;-75
2024/01/28 10:59:24;;;;;;;;;;;9.40;99.90;;;;;;5006284;28;19967;-75
2024/01/28 11:02:12;;;;;;;;;;;10.10;99.90;;;;;;5024082;28;19927;-75
2024/01/28 11:05:00;;;;;;;;;;;10.80;99.90;;;;;;5017638;28;19913;-75
2024/01/28 11:07:47;;;;;;;;;;;11.40;99.90;;;;;;5020779;28;19921;-75
2024/01/28 11:10:33;;;;;;;;;;;11.70;99.90;;;;;;5051988;28;19959;-75
2024/01/28 11:13:19;;;;;;;;;;;12.40;99.90;;;;;;5019384;28;20011;-77
2024/01/28 11:16:06;;;;;;;;;;;12.90;99.90;;;;;;5015843;28;19956;-77
2024/01/28 11:18:55;;;;;;;;;;;13.30;99.90;;;;;;5027861;28;19959;-76
2024/01/28 11:21:41;;;;;;;;;;;13.60;99.90;;;;;;5036524;28;19995;-77
2024/01/28 11:24:27;;;;;;;;;;;13.90;99.50;;;;;;5044639;28;19923;-76
2024/01/28 11:27:13;;;;;;;;;;;14.30;98.80;;;;;;5007107;28;19924;-76
2024/01/28 11:29:59;;;;;;;;;;;14.30;98.20;;;;;;5025173;28;19967;-76
2024/01/28 11:32:45;;;;;;;;;;;14.50;97.70;;;;;;5018520;28;19928;-76
2024/01/28 11:35:31;;;;;;;;;;;14.90;97.60;;;;;;5027996;28;19923;-76
2024/01/28 11:38:19;;;;;;;;;;;15.00;97.00;;;;;;5020692;28;20040;-76
2024/01/28 11:41:05;;;;;;;;;;;15.30;97.00;;;;;;5020637;28;19927;-76
2024/01/28 11:43:51;;;;;;;;;;;15.40;96.30;;;;;;5025728;28;19920;-76
2024/01/28 11:46:37;;;;;;;;;;;15.60;95.80;;;;;;5014621;28;20338;-76
2024/01/28 11:49:23;;;;;;;;;;;15.60;93.50;;;;;;5020542;28;20242;-77
2024/01/28 11:52:08;;;;;;;;;;;15.80;94.70;;;;;;5023185;28;20313;-76
2024/01/28 11:54:57;;;;;;;;;;;15.70;93.50;;;;;;5016005;28;19917;-77
2024/01/28 11:57:46;;;;;;;;;;;15.90;93.30;;;;;;5007596;28;20226;-76
2024/01/28 12:00:32;;;;;;;;;;;15.60;92.60;;;;;;5017105;28;20259;-76
2024/01/28 12:03:18;;;;;;;;;;;15.60;91.70;;;;;;5027072;28;19921;-76
2024/01/28 12:06:04;;;;;;;;;;;15.60;89.90;;;;;;5021163;28;20249;-76
2024/01/28 12:08:53;;;;;;;;;;;15.40;90.60;;;;;;5020829;28;19921;-76
2024/01/28 12:11:39;;;;;;;;;;;15.00;90.80;;;;;;5011556;28;19936;-77
2024/01/28 12:14:25;;;;;;;;;;;15.20;91.80;;;;;;5037658;28;19913;-76
2024/01/28 12:17:11;;;;;;;;;;;15.10;90.70;;;;;;5014747;28;19943;-77
2024/01/28 12:19:56;;;;;;;;;;;14.80;90.70;;;;;;5025538;28;20351;-76
2024/01/28 12:22:42;;;;;;;;;;;15.20;91.70;;;;;;5036492;28;19920;-82
2024/01/28 12:25:28;;;;;;;;;;;15.50;91.70;;;;;;5036699;28;19924;-80
2024/01/28 12:28:14;;;;;;;;;;;15.50;93.40;;;;;;5031198;28;19927;-82
2024/01/28 12:31:00;;;;;;;;;;;15.70;91.50;;;;;;5028781;28;19917;-82
2024/01/28 12:33:46;;;;;;;;;;;15.80;91.90;;;;;;5016666;28;20453;-81
2024/01/28 12:36:32;;;;;;;;;;;15.70;90.80;;;;;;5022778;28;19942;-80
2024/01/28 12:39:18;;;;;;;;;;;15.60;92.50;;;;;;5038317;28;19917;-83
2024/01/28 12:42:07;;;;;;;;;;;15.70;92.70;;;;;;5024391;28;19916;-82
2024/01/28 12:44:53;;;;;;;;;;;15.90;91.40;;;;;;5026405;28;20273;-83
2024/01/28 12:47:40;;;;;;;;;;;16.00;91.60;;;;;;5037796;28;19921;-82
2024/01/28 12:50:26;;;;;;;;;;;16.00;91.10;;;;;;5039644;28;19921;-80
2024/01/28 12:53:12;;;;;;;;;;;16.10;92.10;;;;;;5024130;28;19999;-79
2024/01/28 12:56:00;;;;;;;;;;;15.80;91.80;;;;;;5022611;28;20286;-79
2024/01/28 12:58:47;;;;;;;;;;;15.70;91.20;;;;;;5020359;28;20009;-79
2024/01/28 13:01:32;;;;;;;;;;;15.40;91.00;;;;;;5025153;28;20253;-79
2024/01/28 13:04:18;;;;;;;;;;;15.20;91.50;;;;;;5036743;28;19983;-79
2024/01/28 13:07:04;;;;;;;;;;;14.90;91.50;;;;;;5014071;28;19929;-79
2024/01/28 13:09:50;;;;;;;;;;;14.70;91.90;;;;;;5023951;28;19928;-79
2024/01/28 13:12:41;;;;;;;;;;;14.60;92.40;;;;;;5020815;28;20068;-79
2024/01/28 13:15:27;;;;;;;;;;;14.50;92.90;;;;;;5016557;28;20651;-79
2024/01/28 13:18:15;;;;;;;;;;;14.30;93.00;;;;;;5017020;28;19923;-79
2024/01/28 13:21:01;;;;;;;;;;;14.30;92.80;;;;;;5038472;28;19923;-79
2024/01/28 13:23:47;;;;;;;;;;;14.20;93.00;;;;;;5017259;28;19913;-79
2024/01/28 13:26:33;;;;;;;;;;;14.00;93.00;;;;;;5043502;28;19920;-79
2024/01/28 13:29:22;;;;;;;;;;;14.10;94.10;;;;;;5026870;28;19916;-79
2024/01/28 13:32:08;;;;;;;;;;;14.10;93.70;;;;;;5023697;28;19995;-79
2024/01/28 13:34:54;;;;;;;;;;;14.10;94.20;;;;;;5023652;28;19925;-79
2024/01/28 13:37:43;;;;;;;;;;;14.30;94.90;;;;;;5014767;28;19927;-79
2024/01/28 13:40:29;;;;;;;;;;;14.40;93.20;;;;;;5018708;28;19948;-79
2024/01/28 13:43:15;;;;;;;;;;;14.40;93.70;;;;;;5036919;28;19956;-79
2024/01/28 13:46:01;;;;;;;;;;;14.30;93.60;;;;;;5018919;28;19936;-79
2024/01/28 13:48:48;;;;;;;;;;;14.40;93.60;;;;;;5026731;28;19913;-79
2024/01/28 13:51:33;;;;;;;;;;;14.50;93.40;;;;;;5040655;28;19917;-79
2024/01/28 13:54:20;;;;;;;;;;;14.60;93.50;;;;;;5018894;28;20000;-79
2024/01/28 13:57:09;;;;;;;;;;;14.70;93.40;;;;;;5022610;28;19921;-79
2024/01/28 13:59:55;;;;;;;;;;;14.90;92.70;;;;;;5015041;28;19940;-79
2024/01/28 14:02:43;;;;;;;;;;;15.10;93.00;;;;;;5042098;28;19916;-79
2024/01/28 14:05:29;;;;;;;;;;;15.20;93.00;;;;;;5036408;28;19936;-79
2024/01/28 14:08:18;;;;;;;;;;;15.20;91.90;;;;;;5025741;28;19917;-79
2024/01/28 14:11:04;;;;;;;;;;;15.10;92.50;;;;;;5024302;28;19917;-79
2024/01/28 14:13:50;;;;;;;;;;;14.90;91.70;;;;;;5012148;28;19916;-79
2024/01/28 14:16:36;;;;;;;;;;;14.80;92.60;;;;;;5032935;28;20330;-79
2024/01/28 14:19:22;;;;;;;;;;;14.60;92.10;;;;;;5023035;28;19975;-79
2024/01/28 14:22:07;;;;;;;;;;;14.40;91.70;;;;;;5047972;28;20710;-79
2024/01/28 14:24:54;;;;;;;;;;;14.10;92.10;;;;;;5015922;28;20015;-79
2024/01/28 14:27:39;;;;;;;;;;;13.90;92.90;;;;;;5026119;28;19956;-79
2024/01/28 14:30:25;;;;;;;;;;;13.80;93.10;;;;;;5022010;28;19971;-79
2024/01/28 14:33:12;;;;;;;;;;;13.80;93.20;;;;;;5040281;28;20008;-75
2024/01/28 14:35:58;;;;;;;;;;;13.80;93.50;;;;;;5039508;28;19913;-75
2024/01/28 14:38:44;;;;;;;;;;;13.70;93.70;;;;;;5046817;28;19931;-75
2024/01/28 14:41:30;;;;;;;;;;;13.70;93.60;;;;;;5033125;28;19991;-75
2024/01/28 14:44:16;;;;;;;;;;;13.50;93.70;;;;;;5038652;28;19913;-75
2024/01/28 14:47:01;;;;;;;;;;;13.30;93.80;;;;;;5040210;28;20606;-75
2024/01/28 14:49:48;;;;;;;;;;;12.70;94.50;;;;;;5037800;28;19917;-75
2024/01/28 14:52:34;;;;;;;;;;;12.70;95.10;;;;;;5044810;28;19971;-75
2024/01/28 14:55:20;;;;;;;;;;;12.60;95.60;;;;;;5038490;28;19948;-75
2024/01/28 14:58:06;;;;;;;;;;;12.60;96.00;;;;;;5036268;28;20285;-75
2024/01/28 15:00:52;;;;;;;;;;;12.50;96.30;;;;;;5033040;28;19927;-75
2024/01/28 15:03:38;;;;;;;;;;;12.20;97.00;;;;;;5016909;28;20306;-75
2024/01/28 15:06:24;;;;;;;;;;;11.80;97.60;;;;;;5031051;28;20614;-75
2024/01/28 15:09:09;;;;;;;;;;;11.70;98.40;;;;;;5018183;28;19914;-75
2024/01/28 15:11:55;;;;;;;;;;;11.60;98.90;;;;;;5004666;28;19972;-75
2024/01/28 15:14:41;;;;;;;;;;;11.60;99.00;;;;;;5015274;28;19917;-75
2024/01/28 15:17:27;;;;;;;;;;;11.60;99.30;;;;;;5019510;28;19928;-76
2024/01/28 15:20:20;;;;;;;;;;;11.50;99.40;;;;;;5012509;28;19968;-76
2024/01/28 15:23:05;;;;;;;;;;;11.40;99.50;;;;;;5018654;28;19923;-77
2024/01/28 15:25:51;;;;;;;;;;;11.20;99.90;;;;;;5008048;28;19917;-77
2024/01/28 15:28:37;;;;;;;;;;;11.10;99.90;;;;;;4995204;28;19924;-77
2024/01/28 15:31:23;;;;;;;;;;;11.10;99.90;;;;;;5017265;28;19917;-74
2024/01/28 15:34:09;;;;;;;;;;;11.00;99.90;;;;;;5000046;28;19918;-75
2024/01/28 15:36:55;;;;;;;;;;;10.90;99.90;;;;;;4985645;28;19943;-74
2024/01/28 15:39:41;;;;;;;;;;;10.80;99.90;;;;;;4991713;28;20377;-74
2024/01/28 15:42:27;;;;;;;;;;;10.60;99.90;;;;;;5010109;28;19928;-74
2024/01/28 15:45:13;;;;;;;;;;;10.60;99.90;;;;;;5002896;28;19917;-74
2024/01/28 15:47:59;;;;;;;;;;;10.40;99.90;;;;;;5006589;28;19921;-74
2024/01/28 15:50:44;;;;;;;;;;;10.30;99.90;;;;;;5020494;28;20047;-74
2024/01/28 15:53:30;;;;;;;;;;;10.10;99.90;;;;;;5019406;28;20618;-74
2024/01/28 15:56:19;;;;;;;;;;;10.00;99.90;;;;;;5019056;28;19923;-74
2024/01/28 15:59:05;;;;;;;;;;;9.70;99.90;;;;;;4996189;28;20330;-74
2024/01/28 16:01:51;;;;;;;;;;;9.60;99.90;;;;;;4992899;28;19923;-74
2024/01/28 16:04:37;;;;;;;;;;;9.40;99.90;;;;;;5020633;28;20377;-74
2024/01/28 16:07:23;;;;;;;;;;;9.30;99.90;;;;;;5022947;28;19965;-74
2024/01/28 16:10:09;;;;;;;;;;;9.20;99.90;;;;;;5020062;28;19968;-77
2024/01/28 16:12:55;;;;;;;;;;;9.00;99.90;;;;;;5021063;28;20317;-76
2024/01/28 16:15:40;;;;;;;;;;;8.90;99.90;;;;;;5018883;28;19921;-77
2024/01/28 16:18:26;;;;;;;;;;;8.80;99.90;;;;;;5005272;28;19917;-77